createdAt,value
2019-03-04T00:04:13.845Z,2.80
2019-03-04T00:09:17.482Z,2.73
2019-03-04T00:14:21.235Z,2.93
2019-03-04T00:19:24.895Z,2.80
2019-03-04T00:24:28.362Z,2.70
2019-03-04T00:29:31.758Z,2.67
2019-03-04T00:34:35.162Z,2.40
2019-03-04T00:39:38.230Z,2.67
2019-03-04T00:44:41.987Z,2.60
2019-03-04T00:49:45.398Z,2.80
2019-03-04T00:54:48.798Z,2.43
2019-03-04T00:59:52.518Z,2.20
2019-03-04T01:04:55.928Z,2.13
2019-03-04T01:09:59.377Z,2.52
2019-03-04T01:15:02.785Z,2.53
2019-03-04T01:20:07.862Z,2.03
2019-03-04T01:25:13.674Z,2.10
2019-03-04T01:30:19.534Z,2.10
2019-03-04T01:35:22.602Z,1.80
2019-03-04T01:40:26.006Z,1.73
2019-03-04T01:45:29.638Z,1.87
2019-03-04T01:50:33.325Z,2.03
2019-03-04T01:55:37.062Z,1.60
2019-03-04T02:00:40.483Z,1.87
2019-03-04T02:05:44.293Z,1.53
2019-03-04T02:10:48.006Z,1.40
2019-03-04T02:15:51.736Z,1.30
2019-03-04T02:20:55.452Z,1.60
2019-03-04T02:26:04.595Z,1.60
2019-03-04T02:31:07.998Z,1.47
2019-03-04T02:36:11.420Z,1.60
2019-03-04T02:41:14.556Z,1.30
2019-03-04T02:46:17.965Z,1.33
2019-03-04T02:51:21.779Z,1.40
2019-03-04T02:56:25.509Z,1.57
2019-03-04T03:01:28.982Z,1.70
2019-03-04T03:06:32.382Z,1.60
2019-03-04T03:11:35.455Z,1.80
2019-03-04T03:16:39.161Z,1.90
2019-03-04T03:21:42.562Z,2.10
2019-03-04T03:26:46.309Z,2.10
2019-03-04T03:31:49.371Z,2.10
2019-03-04T03:36:52.771Z,2.00
2019-03-04T03:41:56.477Z,1.90
2019-03-04T03:46:59.587Z,2.10
2019-03-04T03:52:02.992Z,1.87
2019-03-04T03:57:06.399Z,1.80
2019-03-04T04:02:09.807Z,1.67
2019-03-04T04:07:13.443Z,1.90
2019-03-04T04:12:16.848Z,1.80
2019-03-04T04:17:20.268Z,2.00
2019-03-04T04:22:23.997Z,2.00
2019-03-04T04:27:27.643Z,1.93
2019-03-04T04:32:31.015Z,2.13
2019-03-04T04:37:34.447Z,1.97
2019-03-04T04:42:37.865Z,1.80
2019-03-04T04:47:42.623Z,1.83
2019-03-04T04:52:46.298Z,2.20
2019-03-04T04:57:49.726Z,2.30
2019-03-04T05:02:53.159Z,2.50
2019-03-04T05:07:56.583Z,2.10
2019-03-04T05:12:59.659Z,2.30
2019-03-04T05:18:03.084Z,2.20
2019-03-04T05:23:06.524Z,1.90
2019-03-04T05:28:10.029Z,2.00
2019-03-04T05:33:13.538Z,1.90
2019-03-04T05:38:17.243Z,1.90
2019-03-04T05:43:20.756Z,1.80
2019-03-04T05:48:24.480Z,1.90
2019-03-04T05:53:28.215Z,2.10
2019-03-04T05:58:31.632Z,2.03
2019-03-04T06:03:34.718Z,2.10
2019-03-04T06:08:38.447Z,2.10
2019-03-04T06:13:42.282Z,2.33
2019-03-04T06:18:45.999Z,2.10
2019-03-04T06:23:49.720Z,2.37
2019-03-04T06:28:53.130Z,2.00
2019-03-04T06:33:56.592Z,2.20
2019-03-04T06:38:59.712Z,1.87
2019-03-04T06:44:03.128Z,1.77
2019-03-04T06:49:06.556Z,1.70
2019-03-04T06:54:19.155Z,1.90
2019-03-04T06:59:40.519Z,1.57
2019-03-04T07:04:45.145Z,1.37
2019-03-04T07:09:48.787Z,1.50
2019-03-04T07:14:52.678Z,1.17
2019-03-04T07:20:05.264Z,1.23
2019-03-04T07:25:10.020Z,1.20
2019-03-04T07:30:16.200Z,1.40
2019-03-04T07:35:19.672Z,1.40
2019-03-04T07:40:23.335Z,1.30
2019-03-04T07:45:26.784Z,1.30
2019-03-04T07:50:29.980Z,1.30
2019-03-04T07:55:33.375Z,1.27
2019-03-04T08:00:37.211Z,1.40
2019-03-04T08:05:40.664Z,1.30
2019-03-04T08:11:06.715Z,1.10
2019-03-04T08:16:11.554Z,0.90
2019-03-04T08:21:14.630Z,1.03
2019-03-04T08:26:18.035Z,1.10
2019-03-04T08:31:21.764Z,1.10
2019-03-04T08:36:24.842Z,1.00
2019-03-04T08:41:27.982Z,1.20
2019-03-04T08:46:31.379Z,1.10
2019-03-04T08:51:34.808Z,0.77
2019-03-04T08:56:38.527Z,0.97
2019-03-04T09:01:41.955Z,0.97
2019-03-04T09:06:45.679Z,1.47
2019-03-04T09:11:49.489Z,1.10
2019-03-04T09:16:53.203Z,1.50
2019-03-04T09:21:56.328Z,1.60
2019-03-04T09:26:59.749Z,1.33
2019-03-04T09:32:03.451Z,1.70
2019-03-04T09:37:06.518Z,1.90
2019-03-04T09:42:11.243Z,2.00
2019-03-04T09:47:14.619Z,1.93
2019-03-04T09:52:18.025Z,1.80
2019-03-04T09:57:21.423Z,2.97
2019-03-04T10:02:24.763Z,1.57
2019-03-04T10:07:37.770Z,2.20
2019-03-04T10:12:53.185Z,2.10
2019-03-04T10:18:15.040Z,2.03
2019-03-04T10:23:27.470Z,1.90
2019-03-04T10:28:50.419Z,2.13
2019-03-04T10:33:59.694Z,2.40
2019-03-04T10:39:06.495Z,2.23
2019-03-04T10:44:23.175Z,1.80
2019-03-04T10:49:27.358Z,1.90
2019-03-04T10:54:31.205Z,1.60
2019-03-04T10:59:34.601Z,1.83
2019-03-04T11:04:38.311Z,1.70
2019-03-04T11:09:41.615Z,1.80
2019-03-04T11:14:44.963Z,1.67
2019-03-04T11:19:48.671Z,1.50
2019-03-04T11:24:52.083Z,1.50
2019-03-04T11:29:55.495Z,1.50
2019-03-04T11:34:59.211Z,1.00
2019-03-04T11:40:04.285Z,1.60
2019-03-04T11:45:11.108Z,1.20
2019-03-04T11:50:15.954Z,1.57
2019-03-04T11:55:37.477Z,1.37
2019-03-04T12:00:59.381Z,0.80
2019-03-04T12:06:02.860Z,1.10
2019-03-04T12:11:06.651Z,1.23
2019-03-04T12:16:09.720Z,1.30
2019-03-04T12:21:13.066Z,0.60
2019-03-04T12:26:18.515Z,1.07
2019-03-04T12:31:23.172Z,1.20
2019-03-04T12:36:26.254Z,1.30
2019-03-04T12:41:29.387Z,1.50
2019-03-04T12:46:32.783Z,1.37
2019-03-04T12:51:36.131Z,1.57
2019-03-04T12:56:39.214Z,1.60
2019-03-04T13:01:42.281Z,1.50
2019-03-04T13:06:45.939Z,1.67
2019-03-04T13:11:49.399Z,1.70
2019-03-04T13:16:53.077Z,1.60
2019-03-04T13:21:56.896Z,1.55
2019-03-04T13:26:59.957Z,1.73
2019-03-04T13:32:03.335Z,1.90
2019-03-04T13:37:06.430Z,1.90
2019-03-04T13:42:09.856Z,1.87
2019-03-04T13:47:13.257Z,1.90
2019-03-04T13:52:16.583Z,1.60
2019-03-04T13:57:19.988Z,1.90
2019-03-04T14:02:23.387Z,1.90
2019-03-04T14:07:26.458Z,1.70
2019-03-04T14:12:29.530Z,2.70
2019-03-04T14:17:32.939Z,1.73
2019-03-04T14:22:40.385Z,1.63
2019-03-04T14:27:41.940Z,1.63
2019-03-04T14:32:45.026Z,1.83
2019-03-04T14:37:48.110Z,2.00
2019-03-04T14:42:51.552Z,2.20
2019-03-04T14:47:55.455Z,2.20
2019-03-04T14:52:58.860Z,2.17
2019-03-04T14:58:02.617Z,2.07
2019-03-04T15:03:06.451Z,2.30
2019-03-04T15:08:09.847Z,2.30
2019-03-04T15:13:13.663Z,2.23
2019-03-04T15:18:16.743Z,2.23
2019-03-04T15:23:20.099Z,2.30
2019-03-04T15:28:25.255Z,2.73
2019-03-04T15:33:28.958Z,3.07
2019-03-04T15:38:32.366Z,3.43
2019-03-04T15:43:35.439Z,3.10
2019-03-04T15:48:38.844Z,3.40
2019-03-04T15:53:43.495Z,3.17
2019-03-04T15:58:47.386Z,3.07
2019-03-04T16:03:50.846Z,3.20
2019-03-04T16:08:54.524Z,2.97
2019-03-04T16:13:57.940Z,2.63
2019-03-04T16:19:01.994Z,2.50
2019-03-04T16:24:05.514Z,2.10
2019-03-04T16:29:08.897Z,2.40
2019-03-04T16:34:12.316Z,2.10
2019-03-04T16:39:18.665Z,1.87
2019-03-04T16:44:22.410Z,2.03
2019-03-04T16:49:26.207Z,2.07
2019-03-04T16:54:29.573Z,2.10
2019-03-04T16:59:32.623Z,2.20
2019-03-04T17:04:36.375Z,1.87
2019-03-04T17:09:39.832Z,2.37
2019-03-04T17:14:42.910Z,2.13
2019-03-04T17:19:46.635Z,2.20
2019-03-04T17:24:50.031Z,2.20
2019-03-04T17:29:53.360Z,2.07
2019-03-04T17:34:56.871Z,2.53
2019-03-04T17:40:00.601Z,2.30
2019-03-04T17:45:05.780Z,2.40
2019-03-04T17:50:10.400Z,2.70
2019-03-04T17:55:15.149Z,2.50
2019-03-04T18:00:19.302Z,2.40
2019-03-04T18:05:22.391Z,2.62
2019-03-04T18:10:25.845Z,2.50
2019-03-04T18:15:34.612Z,2.50
2019-03-04T18:20:37.783Z,6.83
2019-03-04T18:25:45.367Z,4.93
2019-03-04T18:30:57.724Z,5.53
2019-03-04T18:36:04.198Z,5.67
2019-03-04T18:41:08.816Z,5.00
2019-03-04T18:46:30.067Z,4.67
2019-03-04T18:51:33.472Z,2.80
2019-03-04T18:56:36.867Z,2.80
2019-03-04T19:01:40.588Z,2.83
2019-03-04T19:06:44.327Z,2.33
2019-03-04T19:11:47.726Z,2.43
2019-03-04T19:16:50.851Z,2.43
2019-03-04T19:21:53.904Z,3.30
2019-03-04T19:26:57.561Z,2.70
2019-03-04T19:32:01.011Z,2.70
2019-03-04T19:37:04.407Z,2.90
2019-03-04T19:42:07.798Z,2.80
2019-03-04T19:47:11.556Z,2.50
2019-03-04T19:52:14.977Z,3.00
2019-03-04T19:57:18.034Z,2.53
2019-03-04T20:02:21.475Z,2.43
2019-03-04T20:07:24.554Z,2.50
2019-03-04T20:12:28.081Z,2.53
2019-03-04T20:17:31.617Z,2.50
2019-03-04T20:22:34.683Z,2.93
2019-03-04T20:27:38.155Z,3.80
2019-03-04T20:32:41.374Z,2.30
2019-03-04T20:37:53.867Z,2.87
2019-03-04T20:42:57.343Z,2.70
2019-03-04T20:48:00.722Z,2.30
2019-03-04T20:53:04.258Z,2.50
2019-03-04T20:58:07.644Z,2.27
2019-03-04T21:03:11.347Z,2.30
2019-03-04T21:08:14.839Z,2.30
2019-03-04T21:13:34.838Z,1.90
2019-03-04T21:18:29.800Z,2.00
2019-03-04T21:23:32.866Z,2.03
2019-03-04T21:29:00.698Z,1.90
2019-03-04T21:34:08.234Z,2.00
2019-03-04T21:39:33.289Z,2.00
2019-03-04T21:44:48.746Z,1.70
2019-03-04T21:49:52.366Z,1.90
2019-03-04T21:54:56.081Z,1.87
2019-03-04T21:59:59.777Z,1.80
2019-03-04T22:05:04.385Z,1.83
2019-03-04T22:10:09.026Z,2.57
2019-03-04T22:15:12.166Z,2.13
2019-03-04T22:20:15.620Z,1.97
2019-03-04T22:25:18.695Z,1.80
2019-03-04T22:30:21.763Z,1.63
2019-03-04T22:35:25.234Z,1.73
2019-03-04T22:40:29.864Z,2.07
2019-03-04T22:45:33.277Z,2.07
2019-03-04T22:50:37.394Z,1.73
2019-03-04T22:55:40.964Z,2.10
2019-03-04T23:00:47.182Z,2.13
2019-03-04T23:06:06.414Z,2.10
2019-03-04T23:11:09.819Z,2.40
2019-03-04T23:16:16.802Z,2.30
2019-03-04T23:21:20.128Z,1.90
2019-03-04T23:26:23.851Z,2.97
2019-03-04T23:31:27.222Z,2.10
2019-03-04T23:36:30.294Z,2.30
2019-03-04T23:41:33.703Z,2.37
2019-03-04T23:46:37.399Z,2.43
2019-03-04T23:51:41.149Z,2.33
2019-03-04T23:56:44.610Z,2.23
